sensor_id;sensor_type;location;lat;lon;timestamp;P1;durP1;ratioP1;P2;durP2;ratioP2
20095;SDS011;10207;50.942;6.900;2023-08-21T00:01:09;15.40;;;7.63;;
20095;SDS011;10207;50.942;6.900;2023-08-21T00:03:34;10.88;;;6.93;;
20095;SDS011;10207;50.942;6.900;2023-08-21T00:06:00;12.80;;;7.90;;
20095;SDS011;10207;50.942;6.900;2023-08-21T00:08:26;13.18;;;8.27;;
20095;SDS011;10207;50.942;6.900;2023-08-21T00:10:52;14.80;;;8.73;;
20095;SDS011;10207;50.942;6.900;2023-08-21T00:13:18;10.40;;;8.05;;
20095;SDS011;10207;50.942;6.900;2023-08-21T00:15:44;10.88;;;8.30;;
20095;SDS011;10207;50.942;6.900;2023-08-21T00:18:10;10.18;;;7.15;;
20095;SDS011;10207;50.942;6.900;2023-08-21T00:20:36;11.15;;;7.15;;
20095;SDS011;10207;50.942;6.900;2023-08-21T00:23:02;11.48;;;8.07;;
20095;SDS011;10207;50.942;6.900;2023-08-21T00:25:28;11.43;;;8.52;;
20095;SDS011;10207;50.942;6.900;2023-08-21T00:27:54;9.25;;;7.53;;
20095;SDS011;10207;50.942;6.900;2023-08-21T00:30:20;11.82;;;7.90;;
20095;SDS011;10207;50.942;6.900;2023-08-21T00:32:46;12.73;;;8.75;;
20095;SDS011;10207;50.942;6.900;2023-08-21T00:35:12;13.35;;;8.15;;
20095;SDS011;10207;50.942;6.900;2023-08-21T00:37:38;9.75;;;7.32;;
20095;SDS011;10207;50.942;6.900;2023-08-21T00:40:04;12.60;;;6.78;;
20095;SDS011;10207;50.942;6.900;2023-08-21T00:42:30;9.07;;;6.75;;
20095;SDS011;10207;50.942;6.900;2023-08-21T00:44:56;9.05;;;6.05;;
20095;SDS011;10207;50.942;6.900;2023-08-21T00:47:22;9.68;;;7.00;;
20095;SDS011;10207;50.942;6.900;2023-08-21T00:49:48;12.15;;;6.55;;
20095;SDS011;10207;50.942;6.900;2023-08-21T00:52:14;10.32;;;6.45;;
20095;SDS011;10207;50.942;6.900;2023-08-21T00:54:41;14.32;;;6.93;;
20095;SDS011;10207;50.942;6.900;2023-08-21T00:57:07;10.60;;;6.78;;
20095;SDS011;10207;50.942;6.900;2023-08-21T00:59:33;12.82;;;6.57;;
20095;SDS011;10207;50.942;6.900;2023-08-21T01:01:59;10.38;;;5.78;;
20095;SDS011;10207;50.942;6.900;2023-08-21T01:04:25;10.13;;;6.07;;
20095;SDS011;10207;50.942;6.900;2023-08-21T01:06:51;12.15;;;5.70;;
20095;SDS011;10207;50.942;6.900;2023-08-21T01:09:22;10.18;;;6.70;;
20095;SDS011;10207;50.942;6.900;2023-08-21T01:12:13;9.65;;;6.13;;
20095;SDS011;10207;50.942;6.900;2023-08-21T01:14:41;12.98;;;6.47;;
20095;SDS011;10207;50.942;6.900;2023-08-21T01:17:09;9.68;;;6.22;;
20095;SDS011;10207;50.942;6.900;2023-08-21T01:19:42;10.68;;;6.45;;
20095;SDS011;10207;50.942;6.900;2023-08-21T01:22:09;13.43;;;6.50;;
20095;SDS011;10207;50.942;6.900;2023-08-21T01:24:35;13.57;;;6.95;;
20095;SDS011;10207;50.942;6.900;2023-08-21T01:27:01;12.15;;;6.57;;
20095;SDS011;10207;50.942;6.900;2023-08-21T01:29:27;11.25;;;6.25;;
20095;SDS011;10207;50.942;6.900;2023-08-21T01:32:19;11.65;;;6.60;;
20095;SDS011;10207;50.942;6.900;2023-08-21T01:34:41;16.27;;;7.60;;
20095;SDS011;10207;50.942;6.900;2023-08-21T01:37:07;14.57;;;7.00;;
20095;SDS011;10207;50.942;6.900;2023-08-21T01:39:33;12.88;;;6.70;;
20095;SDS011;10207;50.942;6.900;2023-08-21T01:41:59;11.18;;;7.00;;
20095;SDS011;10207;50.942;6.900;2023-08-21T01:44:26;12.43;;;6.47;;
20095;SDS011;10207;50.942;6.900;2023-08-21T01:46:52;9.00;;;6.82;;
20095;SDS011;10207;50.942;6.900;2023-08-21T01:49:18;12.77;;;6.93;;
20095;SDS011;10207;50.942;6.900;2023-08-21T01:51:45;11.32;;;6.70;;
20095;SDS011;10207;50.942;6.900;2023-08-21T01:54:11;11.02;;;5.93;;
20095;SDS011;10207;50.942;6.900;2023-08-21T01:56:37;10.55;;;6.28;;
20095;SDS011;10207;50.942;6.900;2023-08-21T01:59:04;11.55;;;5.68;;
20095;SDS011;10207;50.942;6.900;2023-08-21T02:01:30;8.88;;;4.57;;
20095;SDS011;10207;50.942;6.900;2023-08-21T02:03:56;9.70;;;5.00;;
20095;SDS011;10207;50.942;6.900;2023-08-21T02:06:22;5.60;;;4.38;;
20095;SDS011;10207;50.942;6.900;2023-08-21T02:08:48;9.48;;;5.10;;
20095;SDS011;10207;50.942;6.900;2023-08-21T02:11:14;11.50;;;5.35;;
20095;SDS011;10207;50.942;6.900;2023-08-21T02:13:40;13.40;;;5.40;;
20095;SDS011;10207;50.942;6.900;2023-08-21T02:16:06;8.68;;;4.70;;
20095;SDS011;10207;50.942;6.900;2023-08-21T02:18:33;9.15;;;4.82;;
20095;SDS011;10207;50.942;6.900;2023-08-21T02:21:00;6.95;;;4.50;;
20095;SDS011;10207;50.942;6.900;2023-08-21T02:23:26;12.52;;;5.45;;
20095;SDS011;10207;50.942;6.900;2023-08-21T02:25:52;9.10;;;5.25;;
20095;SDS011;10207;50.942;6.900;2023-08-21T02:28:18;14.48;;;5.40;;
20095;SDS011;10207;50.942;6.900;2023-08-21T02:30:44;12.25;;;5.82;;
20095;SDS011;10207;50.942;6.900;2023-08-21T02:33:11;14.20;;;5.78;;
20095;SDS011;10207;50.942;6.900;2023-08-21T02:35:38;7.38;;;5.30;;
20095;SDS011;10207;50.942;6.900;2023-08-21T02:38:04;14.02;;;5.75;;
20095;SDS011;10207;50.942;6.900;2023-08-21T02:40:34;12.48;;;6.30;;
20095;SDS011;10207;50.942;6.900;2023-08-21T02:43:00;10.07;;;5.40;;
20095;SDS011;10207;50.942;6.900;2023-08-21T02:45:26;9.98;;;5.72;;
20095;SDS011;10207;50.942;6.900;2023-08-21T02:47:52;17.80;;;7.07;;
20095;SDS011;10207;50.942;6.900;2023-08-21T02:50:18;11.90;;;6.20;;
20095;SDS011;10207;50.942;6.900;2023-08-21T02:52:44;11.57;;;6.20;;
20095;SDS011;10207;50.942;6.900;2023-08-21T02:55:10;16.50;;;7.00;;
20095;SDS011;10207;50.942;6.900;2023-08-21T02:57:36;13.85;;;6.18;;
20095;SDS011;10207;50.942;6.900;2023-08-21T03:00:02;11.68;;;5.90;;
20095;SDS011;10207;50.942;6.900;2023-08-21T03:02:28;9.60;;;6.40;;
20095;SDS011;10207;50.942;6.900;2023-08-21T03:04:54;8.02;;;5.18;;
20095;SDS011;10207;50.942;6.900;2023-08-21T03:07:20;9.95;;;5.63;;
20095;SDS011;10207;50.942;6.900;2023-08-21T03:09:47;9.10;;;4.63;;
20095;SDS011;10207;50.942;6.900;2023-08-21T03:12:13;8.20;;;4.88;;
20095;SDS011;10207;50.942;6.900;2023-08-21T03:14:39;13.60;;;5.40;;
20095;SDS011;10207;50.942;6.900;2023-08-21T03:17:05;6.93;;;4.93;;
20095;SDS011;10207;50.942;6.900;2023-08-21T03:19:31;7.88;;;4.78;;
20095;SDS011;10207;50.942;6.900;2023-08-21T03:21:57;6.38;;;4.47;;
20095;SDS011;10207;50.942;6.900;2023-08-21T03:24:23;7.78;;;4.80;;
20095;SDS011;10207;50.942;6.900;2023-08-21T03:26:49;8.18;;;4.60;;
20095;SDS011;10207;50.942;6.900;2023-08-21T03:29:15;10.68;;;4.90;;
20095;SDS011;10207;50.942;6.900;2023-08-21T03:31:41;11.45;;;5.18;;
20095;SDS011;10207;50.942;6.900;2023-08-21T03:34:08;10.77;;;4.97;;
20095;SDS011;10207;50.942;6.900;2023-08-21T03:36:34;14.00;;;5.95;;
20095;SDS011;10207;50.942;6.900;2023-08-21T03:39:03;11.88;;;5.80;;
20095;SDS011;10207;50.942;6.900;2023-08-21T03:41:35;10.38;;;5.50;;
20095;SDS011;10207;50.942;6.900;2023-08-21T03:44:01;14.85;;;6.22;;
20095;SDS011;10207;50.942;6.900;2023-08-21T03:46:27;16.02;;;8.02;;
20095;SDS011;10207;50.942;6.900;2023-08-21T03:48:54;16.02;;;7.35;;
20095;SDS011;10207;50.942;6.900;2023-08-21T03:51:20;18.55;;;8.40;;
20095;SDS011;10207;50.942;6.900;2023-08-21T03:53:46;14.48;;;8.13;;
20095;SDS011;10207;50.942;6.900;2023-08-21T03:56:12;14.90;;;7.00;;
20095;SDS011;10207;50.942;6.900;2023-08-21T03:58:38;19.17;;;7.57;;
20095;SDS011;10207;50.942;6.900;2023-08-21T04:01:04;15.52;;;6.25;;
20095;SDS011;10207;50.942;6.900;2023-08-21T04:03:30;11.43;;;5.18;;
20095;SDS011;10207;50.942;6.900;2023-08-21T04:05:56;7.40;;;3.95;;
20095;SDS011;10207;50.942;6.900;2023-08-21T04:08:22;13.02;;;4.30;;
20095;SDS011;10207;50.942;6.900;2023-08-21T04:10:48;9.63;;;4.30;;
20095;SDS011;10207;50.942;6.900;2023-08-21T04:13:14;13.52;;;4.90;;
20095;SDS011;10207;50.942;6.900;2023-08-21T04:15:44;11.95;;;4.50;;
20095;SDS011;10207;50.942;6.900;2023-08-21T04:18:10;10.30;;;4.55;;
20095;SDS011;10207;50.942;6.900;2023-08-21T04:20:35;12.60;;;4.60;;
20095;SDS011;10207;50.942;6.900;2023-08-21T04:23:02;10.15;;;4.70;;
20095;SDS011;10207;50.942;6.900;2023-08-21T04:25:28;9.82;;;4.43;;
20095;SDS011;10207;50.942;6.900;2023-08-21T04:27:54;11.13;;;5.00;;
20095;SDS011;10207;50.942;6.900;2023-08-21T04:30:21;12.30;;;5.38;;
20095;SDS011;10207;50.942;6.900;2023-08-21T04:32:47;9.00;;;4.85;;
20095;SDS011;10207;50.942;6.900;2023-08-21T04:35:14;7.97;;;5.00;;
20095;SDS011;10207;50.942;6.900;2023-08-21T04:37:46;10.23;;;5.32;;
20095;SDS011;10207;50.942;6.900;2023-08-21T04:40:13;9.73;;;5.15;;
20095;SDS011;10207;50.942;6.900;2023-08-21T04:42:39;9.35;;;4.82;;
20095;SDS011;10207;50.942;6.900;2023-08-21T04:45:05;13.07;;;5.72;;
20095;SDS011;10207;50.942;6.900;2023-08-21T04:47:34;10.57;;;5.60;;
20095;SDS011;10207;50.942;6.900;2023-08-21T04:50:00;12.05;;;5.97;;
20095;SDS011;10207;50.942;6.900;2023-08-21T04:52:28;12.43;;;5.30;;
20095;SDS011;10207;50.942;6.900;2023-08-21T04:54:54;11.05;;;5.20;;
20095;SDS011;10207;50.942;6.900;2023-08-21T04:57:20;11.32;;;5.35;;
20095;SDS011;10207;50.942;6.900;2023-08-21T04:59:47;15.90;;;6.05;;
20095;SDS011;10207;50.942;6.900;2023-08-21T05:02:13;9.88;;;5.25;;
20095;SDS011;10207;50.942;6.900;2023-08-21T05:04:39;13.73;;;6.03;;
20095;SDS011;10207;50.942;6.900;2023-08-21T05:07:06;11.52;;;5.65;;
20095;SDS011;10207;50.942;6.900;2023-08-21T05:09:32;10.02;;;4.93;;
20095;SDS011;10207;50.942;6.900;2023-08-21T05:11:58;10.27;;;5.00;;
20095;SDS011;10207;50.942;6.900;2023-08-21T05:14:24;11.38;;;5.32;;
20095;SDS011;10207;50.942;6.900;2023-08-21T05:16:50;10.35;;;4.22;;
20095;SDS011;10207;50.942;6.900;2023-08-21T05:19:17;9.90;;;4.68;;
20095;SDS011;10207;50.942;6.900;2023-08-21T05:21:43;11.07;;;4.45;;
20095;SDS011;10207;50.942;6.900;2023-08-21T05:24:10;13.80;;;5.40;;
20095;SDS011;10207;50.942;6.900;2023-08-21T05:26:38;12.52;;;4.88;;
20095;SDS011;10207;50.942;6.900;2023-08-21T05:29:04;11.68;;;5.18;;
20095;SDS011;10207;50.942;6.900;2023-08-21T05:31:30;7.13;;;3.95;;
20095;SDS011;10207;50.942;6.900;2023-08-21T05:33:56;8.15;;;4.38;;
20095;SDS011;10207;50.942;6.900;2023-08-21T05:36:22;13.20;;;5.47;;
20095;SDS011;10207;50.942;6.900;2023-08-21T05:38:48;12.05;;;5.25;;
20095;SDS011;10207;50.942;6.900;2023-08-21T05:41:17;8.88;;;4.40;;
20095;SDS011;10207;50.942;6.900;2023-08-21T05:43:44;8.68;;;4.63;;
20095;SDS011;10207;50.942;6.900;2023-08-21T05:46:12;10.57;;;5.30;;
20095;SDS011;10207;50.942;6.900;2023-08-21T05:48:38;9.80;;;5.03;;
20095;SDS011;10207;50.942;6.900;2023-08-21T05:51:04;10.02;;;4.75;;
20095;SDS011;10207;50.942;6.900;2023-08-21T05:53:31;13.80;;;4.97;;
20095;SDS011;10207;50.942;6.900;2023-08-21T05:55:57;11.32;;;5.47;;
20095;SDS011;10207;50.942;6.900;2023-08-21T05:58:23;10.35;;;4.43;;
20095;SDS011;10207;50.942;6.900;2023-08-21T06:00:49;9.15;;;4.13;;
20095;SDS011;10207;50.942;6.900;2023-08-21T06:03:15;9.85;;;4.25;;
20095;SDS011;10207;50.942;6.900;2023-08-21T06:06:10;9.65;;;4.28;;
20095;SDS011;10207;50.942;6.900;2023-08-21T06:08:37;13.38;;;4.60;;
20095;SDS011;10207;50.942;6.900;2023-08-21T06:11:03;6.97;;;3.63;;
20095;SDS011;10207;50.942;6.900;2023-08-21T06:13:29;9.88;;;3.88;;
20095;SDS011;10207;50.942;6.900;2023-08-21T06:15:55;8.68;;;4.18;;
20095;SDS011;10207;50.942;6.900;2023-08-21T06:18:23;7.68;;;4.40;;
20095;SDS011;10207;50.942;6.900;2023-08-21T06:20:49;7.32;;;3.80;;
20095;SDS011;10207;50.942;6.900;2023-08-21T06:23:19;11.02;;;4.45;;
20095;SDS011;10207;50.942;6.900;2023-08-21T06:25:49;8.63;;;3.83;;
20095;SDS011;10207;50.942;6.900;2023-08-21T06:28:16;9.13;;;4.63;;
20095;SDS011;10207;50.942;6.900;2023-08-21T06:30:42;8.95;;;4.05;;
20095;SDS011;10207;50.942;6.900;2023-08-21T06:33:08;6.80;;;3.75;;
20095;SDS011;10207;50.942;6.900;2023-08-21T06:35:37;6.78;;;3.85;;
20095;SDS011;10207;50.942;6.900;2023-08-21T06:38:03;5.65;;;4.00;;
20095;SDS011;10207;50.942;6.900;2023-08-21T06:40:30;8.82;;;3.92;;
20095;SDS011;10207;50.942;6.900;2023-08-21T06:42:56;12.98;;;3.55;;
20095;SDS011;10207;50.942;6.900;2023-08-21T06:45:26;8.20;;;3.88;;
20095;SDS011;10207;50.942;6.900;2023-08-21T06:47:56;4.93;;;3.63;;
20095;SDS011;10207;50.942;6.900;2023-08-21T06:50:22;9.02;;;3.85;;
20095;SDS011;10207;50.942;6.900;2023-08-21T06:52:48;6.57;;;4.00;;
20095;SDS011;10207;50.942;6.900;2023-08-21T06:55:14;12.32;;;4.32;;
20095;SDS011;10207;50.942;6.900;2023-08-21T06:57:40;5.70;;;4.07;;
20095;SDS011;10207;50.942;6.900;2023-08-21T07:00:06;9.27;;;4.60;;
20095;SDS011;10207;50.942;6.900;2023-08-21T07:02:32;9.57;;;4.30;;
20095;SDS011;10207;50.942;6.900;2023-08-21T07:04:58;12.60;;;4.88;;
20095;SDS011;10207;50.942;6.900;2023-08-21T07:07:24;6.18;;;3.70;;
20095;SDS011;10207;50.942;6.900;2023-08-21T07:09:50;7.72;;;4.43;;
20095;SDS011;10207;50.942;6.900;2023-08-21T07:12:16;8.05;;;4.18;;
20095;SDS011;10207;50.942;6.900;2023-08-21T07:14:42;9.40;;;3.80;;
20095;SDS011;10207;50.942;6.900;2023-08-21T07:17:08;7.78;;;4.68;;
20095;SDS011;10207;50.942;6.900;2023-08-21T07:19:34;9.27;;;3.85;;
20095;SDS011;10207;50.942;6.900;2023-08-21T07:22:00;4.80;;;4.03;;
20095;SDS011;10207;50.942;6.900;2023-08-21T07:24:26;8.90;;;4.28;;
20095;SDS011;10207;50.942;6.900;2023-08-21T07:26:52;9.55;;;4.35;;
20095;SDS011;10207;50.942;6.900;2023-08-21T07:29:18;9.77;;;3.85;;
20095;SDS011;10207;50.942;6.900;2023-08-21T07:31:44;6.70;;;3.97;;
20095;SDS011;10207;50.942;6.900;2023-08-21T07:34:09;7.38;;;4.25;;
20095;SDS011;10207;50.942;6.900;2023-08-21T07:36:35;8.48;;;4.05;;
20095;SDS011;10207;50.942;6.900;2023-08-21T07:39:01;7.88;;;4.18;;
20095;SDS011;10207;50.942;6.900;2023-08-21T07:41:27;11.45;;;4.63;;
20095;SDS011;10207;50.942;6.900;2023-08-21T07:43:53;7.40;;;4.60;;
20095;SDS011;10207;50.942;6.900;2023-08-21T07:46:19;10.02;;;5.22;;
20095;SDS011;10207;50.942;6.900;2023-08-21T07:48:45;8.15;;;4.63;;
20095;SDS011;10207;50.942;6.900;2023-08-21T07:51:11;9.02;;;4.20;;
20095;SDS011;10207;50.942;6.900;2023-08-21T07:53:37;8.57;;;4.15;;
20095;SDS011;10207;50.942;6.900;2023-08-21T07:56:03;9.10;;;4.45;;
20095;SDS011;10207;50.942;6.900;2023-08-21T07:58:29;9.93;;;4.82;;
20095;SDS011;10207;50.942;6.900;2023-08-21T08:00:56;7.57;;;4.93;;
20095;SDS011;10207;50.942;6.900;2023-08-21T08:03:22;10.68;;;6.03;;
20095;SDS011;10207;50.942;6.900;2023-08-21T08:05:48;8.05;;;5.05;;
20095;SDS011;10207;50.942;6.900;2023-08-21T08:08:16;9.27;;;5.03;;
20095;SDS011;10207;50.942;6.900;2023-08-21T08:10:42;11.45;;;5.32;;
20095;SDS011;10207;50.942;6.900;2023-08-21T08:13:08;12.13;;;5.85;;
20095;SDS011;10207;50.942;6.900;2023-08-21T08:15:34;12.13;;;7.22;;
20095;SDS011;10207;50.942;6.900;2023-08-21T08:18:01;9.77;;;6.25;;
20095;SDS011;10207;50.942;6.900;2023-08-21T08:20:27;8.52;;;5.65;;
20095;SDS011;10207;50.942;6.900;2023-08-21T08:22:53;9.15;;;5.85;;
20095;SDS011;10207;50.942;6.900;2023-08-21T08:25:19;11.13;;;6.32;;
20095;SDS011;10207;50.942;6.900;2023-08-21T08:27:45;8.88;;;5.85;;
20095;SDS011;10207;50.942;6.900;2023-08-21T08:30:11;11.98;;;6.45;;
20095;SDS011;10207;50.942;6.900;2023-08-21T08:32:37;13.93;;;6.55;;
20095;SDS011;10207;50.942;6.900;2023-08-21T08:35:03;28.38;;;9.40;;
20095;SDS011;10207;50.942;6.900;2023-08-21T08:37:29;18.92;;;7.50;;
20095;SDS011;10207;50.942;6.900;2023-08-21T08:39:55;12.73;;;5.57;;
20095;SDS011;10207;50.942;6.900;2023-08-21T08:42:21;14.43;;;7.38;;
20095;SDS011;10207;50.942;6.900;2023-08-21T08:44:47;8.88;;;5.90;;
20095;SDS011;10207;50.942;6.900;2023-08-21T08:47:14;13.23;;;7.22;;
20095;SDS011;10207;50.942;6.900;2023-08-21T08:49:41;12.13;;;6.07;;
20095;SDS011;10207;50.942;6.900;2023-08-21T08:52:07;13.63;;;8.05;;
20095;SDS011;10207;50.942;6.900;2023-08-21T08:54:33;14.07;;;8.48;;
20095;SDS011;10207;50.942;6.900;2023-08-21T08:57:01;13.52;;;6.47;;
20095;SDS011;10207;50.942;6.900;2023-08-21T08:59:30;13.43;;;7.07;;
20095;SDS011;10207;50.942;6.900;2023-08-21T09:01:56;15.05;;;8.63;;
20095;SDS011;10207;50.942;6.900;2023-08-21T09:04:22;12.68;;;9.00;;
20095;SDS011;10207;50.942;6.900;2023-08-21T09:06:48;10.48;;;7.05;;
20095;SDS011;10207;50.942;6.900;2023-08-21T09:09:14;11.55;;;6.60;;
20095;SDS011;10207;50.942;6.900;2023-08-21T09:11:43;9.35;;;6.38;;
20095;SDS011;10207;50.942;6.900;2023-08-21T09:14:10;13.07;;;7.13;;
20095;SDS011;10207;50.942;6.900;2023-08-21T09:16:36;11.50;;;7.38;;
20095;SDS011;10207;50.942;6.900;2023-08-21T09:19:02;13.23;;;7.82;;
20095;SDS011;10207;50.942;6.900;2023-08-21T09:21:28;9.70;;;6.47;;
20095;SDS011;10207;50.942;6.900;2023-08-21T09:23:58;14.93;;;7.20;;
20095;SDS011;10207;50.942;6.900;2023-08-21T09:26:30;16.75;;;7.32;;
20095;SDS011;10207;50.942;6.900;2023-08-21T09:28:57;12.27;;;7.28;;
20095;SDS011;10207;50.942;6.900;2023-08-21T09:31:31;12.55;;;7.97;;
20095;SDS011;10207;50.942;6.900;2023-08-21T09:34:01;13.57;;;7.35;;
20095;SDS011;10207;50.942;6.900;2023-08-21T09:36:31;14.50;;;6.60;;
20095;SDS011;10207;50.942;6.900;2023-08-21T09:38:57;14.80;;;8.63;;
20095;SDS011;10207;50.942;6.900;2023-08-21T09:41:23;14.75;;;7.63;;
20095;SDS011;10207;50.942;6.900;2023-08-21T09:43:49;14.35;;;8.65;;
20095;SDS011;10207;50.942;6.900;2023-08-21T09:46:16;16.73;;;9.70;;
20095;SDS011;10207;50.942;6.900;2023-08-21T09:48:43;16.58;;;8.20;;
20095;SDS011;10207;50.942;6.900;2023-08-21T09:51:09;13.82;;;9.68;;
20095;SDS011;10207;50.942;6.900;2023-08-21T09:53:35;15.45;;;8.73;;
20095;SDS011;10207;50.942;6.900;2023-08-21T09:56:02;18.88;;;7.97;;
20095;SDS011;10207;50.942;6.900;2023-08-21T09:58:29;13.68;;;8.82;;
20095;SDS011;10207;50.942;6.900;2023-08-21T10:00:58;17.63;;;7.38;;
20095;SDS011;10207;50.942;6.900;2023-08-21T10:03:24;19.63;;;11.70;;
20095;SDS011;10207;50.942;6.900;2023-08-21T10:05:51;16.85;;;8.77;;
20095;SDS011;10207;50.942;6.900;2023-08-21T10:08:21;13.75;;;8.23;;
20095;SDS011;10207;50.942;6.900;2023-08-21T10:10:49;16.88;;;9.43;;
20095;SDS011;10207;50.942;6.900;2023-08-21T10:13:15;20.08;;;10.23;;
20095;SDS011;10207;50.942;6.900;2023-08-21T10:15:41;20.42;;;9.23;;
20095;SDS011;10207;50.942;6.900;2023-08-21T10:20:43;16.23;;;11.52;;
20095;SDS011;10207;50.942;6.900;2023-08-21T10:23:09;12.85;;;10.50;;
20095;SDS011;10207;50.942;6.900;2023-08-21T10:25:41;22.27;;;12.40;;
20095;SDS011;10207;50.942;6.900;2023-08-21T10:28:07;12.07;;;8.95;;
20095;SDS011;10207;50.942;6.900;2023-08-21T10:30:33;18.73;;;12.77;;
20095;SDS011;10207;50.942;6.900;2023-08-21T10:32:59;16.40;;;11.70;;
20095;SDS011;10207;50.942;6.900;2023-08-21T10:35:28;15.32;;;10.73;;
20095;SDS011;10207;50.942;6.900;2023-08-21T10:38:07;19.75;;;12.27;;
20095;SDS011;10207;50.942;6.900;2023-08-21T10:40:34;14.93;;;10.73;;
20095;SDS011;10207;50.942;6.900;2023-08-21T10:43:00;15.40;;;10.57;;
20095;SDS011;10207;50.942;6.900;2023-08-21T10:45:29;20.52;;;11.32;;
20095;SDS011;10207;50.942;6.900;2023-08-21T10:48:01;14.77;;;11.40;;
20095;SDS011;10207;50.942;6.900;2023-08-21T10:50:26;18.55;;;11.88;;
20095;SDS011;10207;50.942;6.900;2023-08-21T10:52:53;16.00;;;10.18;;
20095;SDS011;10207;50.942;6.900;2023-08-21T10:55:19;17.45;;;10.45;;
20095;SDS011;10207;50.942;6.900;2023-08-21T10:57:46;14.52;;;10.73;;
20095;SDS011;10207;50.942;6.900;2023-08-21T11:00:12;18.05;;;12.77;;
20095;SDS011;10207;50.942;6.900;2023-08-21T11:02:40;16.73;;;9.65;;
20095;SDS011;10207;50.942;6.900;2023-08-21T11:05:07;17.02;;;12.07;;
20095;SDS011;10207;50.942;6.900;2023-08-21T11:07:37;18.30;;;10.70;;
20095;SDS011;10207;50.942;6.900;2023-08-21T11:10:03;14.52;;;10.80;;
20095;SDS011;10207;50.942;6.900;2023-08-21T11:12:29;14.90;;;9.68;;
20095;SDS011;10207;50.942;6.900;2023-08-21T11:14:55;17.23;;;10.20;;
20095;SDS011;10207;50.942;6.900;2023-08-21T11:17:21;14.85;;;9.90;;
20095;SDS011;10207;50.942;6.900;2023-08-21T11:19:48;16.83;;;11.88;;
20095;SDS011;10207;50.942;6.900;2023-08-21T11:22:15;17.15;;;11.93;;
20095;SDS011;10207;50.942;6.900;2023-08-21T11:27:08;13.18;;;10.75;;
20095;SDS011;10207;50.942;6.900;2023-08-21T11:29:38;12.18;;;8.85;;
20095;SDS011;10207;50.942;6.900;2023-08-21T11:32:15;16.17;;;11.43;;
20095;SDS011;10207;50.942;6.900;2023-08-21T11:34:42;14.25;;;10.13;;
20095;SDS011;10207;50.942;6.900;2023-08-21T11:37:08;17.02;;;9.82;;
20095;SDS011;10207;50.942;6.900;2023-08-21T11:42:30;13.27;;;9.02;;
20095;SDS011;10207;50.942;6.900;2023-08-21T11:44:58;12.88;;;9.63;;
20095;SDS011;10207;50.942;6.900;2023-08-21T11:47:26;14.07;;;9.55;;
20095;SDS011;10207;50.942;6.900;2023-08-21T11:49:55;12.75;;;9.15;;
20095;SDS011;10207;50.942;6.900;2023-08-21T11:52:22;11.82;;;8.35;;
20095;SDS011;10207;50.942;6.900;2023-08-21T11:54:48;12.90;;;8.13;;
20095;SDS011;10207;50.942;6.900;2023-08-21T11:57:14;10.80;;;7.30;;
20095;SDS011;10207;50.942;6.900;2023-08-21T11:59:41;11.38;;;6.70;;
20095;SDS011;10207;50.942;6.900;2023-08-21T12:02:13;12.98;;;6.82;;
20095;SDS011;10207;50.942;6.900;2023-08-21T12:04:39;14.02;;;8.23;;
20095;SDS011;10207;50.942;6.900;2023-08-21T12:07:05;13.43;;;8.35;;
20095;SDS011;10207;50.942;6.900;2023-08-21T12:09:31;9.52;;;6.72;;
20095;SDS011;10207;50.942;6.900;2023-08-21T12:11:57;10.30;;;5.88;;
20095;SDS011;10207;50.942;6.900;2023-08-21T12:14:23;12.82;;;7.63;;
20095;SDS011;10207;50.942;6.900;2023-08-21T12:16:49;10.05;;;6.38;;
20095;SDS011;10207;50.942;6.900;2023-08-21T12:19:15;12.73;;;6.03;;
20095;SDS011;10207;50.942;6.900;2023-08-21T12:21:41;8.32;;;4.53;;
20095;SDS011;10207;50.942;6.900;2023-08-21T12:24:08;10.00;;;5.22;;
20095;SDS011;10207;50.942;6.900;2023-08-21T12:26:34;12.60;;;5.45;;
20095;SDS011;10207;50.942;6.900;2023-08-21T12:29:00;9.00;;;4.53;;
20095;SDS011;10207;50.942;6.900;2023-08-21T12:31:26;8.10;;;4.70;;
20095;SDS011;10207;50.942;6.900;2023-08-21T12:33:52;7.57;;;4.47;;
20095;SDS011;10207;50.942;6.900;2023-08-21T12:36:18;10.77;;;5.10;;
20095;SDS011;10207;50.942;6.900;2023-08-21T12:38:44;9.35;;;4.40;;
20095;SDS011;10207;50.942;6.900;2023-08-21T12:41:10;7.13;;;3.60;;
20095;SDS011;10207;50.942;6.900;2023-08-21T12:43:36;13.73;;;4.55;;
20095;SDS011;10207;50.942;6.900;2023-08-21T12:46:02;9.20;;;4.65;;
20095;SDS011;10207;50.942;6.900;2023-08-21T12:48:28;8.32;;;4.13;;
20095;SDS011;10207;50.942;6.900;2023-08-21T12:50:53;6.97;;;3.95;;
20095;SDS011;10207;50.942;6.900;2023-08-21T12:53:19;10.38;;;4.15;;
20095;SDS011;10207;50.942;6.900;2023-08-21T12:55:45;9.85;;;3.50;;
20095;SDS011;10207;50.942;6.900;2023-08-21T12:58:11;6.35;;;3.50;;
20095;SDS011;10207;50.942;6.900;2023-08-21T13:00:39;9.57;;;3.45;;
20095;SDS011;10207;50.942;6.900;2023-08-21T13:03:05;5.43;;;3.03;;
20095;SDS011;10207;50.942;6.900;2023-08-21T13:05:31;10.27;;;3.58;;
20095;SDS011;10207;50.942;6.900;2023-08-21T13:07:57;6.15;;;2.65;;
20095;SDS011;10207;50.942;6.900;2023-08-21T13:10:23;7.15;;;3.13;;
20095;SDS011;10207;50.942;6.900;2023-08-21T13:12:49;7.32;;;2.95;;
20095;SDS011;10207;50.942;6.900;2023-08-21T13:15:15;9.10;;;3.17;;
20095;SDS011;10207;50.942;6.900;2023-08-21T13:17:41;5.97;;;3.05;;
20095;SDS011;10207;50.942;6.900;2023-08-21T13:20:09;7.47;;;3.33;;
20095;SDS011;10207;50.942;6.900;2023-08-21T13:22:46;6.75;;;3.22;;
20095;SDS011;10207;50.942;6.900;2023-08-21T13:25:12;9.05;;;3.10;;
20095;SDS011;10207;50.942;6.900;2023-08-21T13:27:38;10.18;;;3.63;;
20095;SDS011;10207;50.942;6.900;2023-08-21T13:30:04;5.93;;;3.10;;
20095;SDS011;10207;50.942;6.900;2023-08-21T13:32:31;7.28;;;2.90;;
20095;SDS011;10207;50.942;6.900;2023-08-21T13:34:57;9.75;;;3.45;;
20095;SDS011;10207;50.942;6.900;2023-08-21T13:37:23;7.90;;;3.60;;
20095;SDS011;10207;50.942;6.900;2023-08-21T13:39:49;8.80;;;3.25;;
20095;SDS011;10207;50.942;6.900;2023-08-21T13:42:15;6.22;;;3.05;;
20095;SDS011;10207;50.942;6.900;2023-08-21T13:44:41;7.75;;;3.10;;
20095;SDS011;10207;50.942;6.900;2023-08-21T13:47:07;9.38;;;3.15;;
20095;SDS011;10207;50.942;6.900;2023-08-21T13:49:33;9.93;;;2.78;;
20095;SDS011;10207;50.942;6.900;2023-08-21T13:51:59;9.23;;;4.00;;
20095;SDS011;10207;50.942;6.900;2023-08-21T13:54:25;8.95;;;3.58;;
20095;SDS011;10207;50.942;6.900;2023-08-21T13:56:50;11.43;;;3.53;;
20095;SDS011;10207;50.942;6.900;2023-08-21T13:59:16;8.27;;;3.28;;
20095;SDS011;10207;50.942;6.900;2023-08-21T14:01:42;8.45;;;2.75;;
20095;SDS011;10207;50.942;6.900;2023-08-21T14:04:08;8.63;;;3.05;;
20095;SDS011;10207;50.942;6.900;2023-08-21T14:06:35;12.05;;;3.50;;
20095;SDS011;10207;50.942;6.900;2023-08-21T14:09:01;10.80;;;3.92;;
20095;SDS011;10207;50.942;6.900;2023-08-21T14:11:26;7.18;;;2.90;;
20095;SDS011;10207;50.942;6.900;2023-08-21T14:13:52;5.50;;;2.83;;
20095;SDS011;10207;50.942;6.900;2023-08-21T14:16:18;7.78;;;3.60;;
20095;SDS011;10207;50.942;6.900;2023-08-21T14:18:44;6.60;;;3.20;;
20095;SDS011;10207;50.942;6.900;2023-08-21T14:21:10;8.30;;;3.50;;
20095;SDS011;10207;50.942;6.900;2023-08-21T14:23:36;7.03;;;2.70;;
20095;SDS011;10207;50.942;6.900;2023-08-21T14:26:04;8.68;;;3.08;;
20095;SDS011;10207;50.942;6.900;2023-08-21T14:28:30;6.72;;;3.30;;
20095;SDS011;10207;50.942;6.900;2023-08-21T14:30:56;11.15;;;3.10;;
20095;SDS011;10207;50.942;6.900;2023-08-21T14:33:22;9.63;;;2.90;;
20095;SDS011;10207;50.942;6.900;2023-08-21T14:35:48;9.15;;;2.80;;
20095;SDS011;10207;50.942;6.900;2023-08-21T14:38:14;7.55;;;2.70;;
20095;SDS011;10207;50.942;6.900;2023-08-21T14:40:41;5.97;;;2.80;;
20095;SDS011;10207;50.942;6.900;2023-08-21T14:43:07;7.93;;;2.60;;